Smith River, California
Current Conditions -  °F | °C
As of 4:56 PM on Friday 21 Nov 2014 (Local Time) from KCEC Reporting Station
Light Rain Light Rain  
Wind Chill: 56°   Ceiling: 1500
Heat Index: 56°   Visibility: 5mi
Dew Point: 55°   Wind: 24mph
Humidity: 97%   Direction: 170°S
Pressure: 29.86"   Gusts: 32mph
Location:  41.93°N, 124.15°W
Report Text: KCEC 220056Z AUTO 17021G28KT 5SM -RA BR OVC015 13/13 A2986 RMK AO2 PK WND 17030/0036 SLP113 P0001 T01330128
Loading
Personal Weather Stations






























Interactive Weather Map New forecast layout! Learn more

10-Day Weather Forecast

Advertisements
Track Severe Weather on mobile